createdAt,value
2023-02-23T00:01:20.232Z,7.43
2023-02-23T00:03:48.744Z,8.20
2023-02-23T00:06:16.874Z,7.27
2023-02-23T00:08:43.658Z,8.00
2023-02-23T00:11:12.205Z,8.47
2023-02-23T00:13:39.515Z,8.70
2023-02-23T00:16:12.601Z,7.30
2023-02-23T00:18:48.471Z,7.47
2023-02-23T00:21:16.520Z,8.80
2023-02-23T00:23:47.818Z,7.87
2023-02-23T00:26:14.714Z,8.40
2023-02-23T00:28:43.660Z,8.20
2023-02-23T00:31:11.638Z,7.97
2023-02-23T00:33:39.286Z,9.20
2023-02-23T00:36:10.301Z,7.70
2023-02-23T00:38:39.851Z,8.00
2023-02-23T00:41:12.454Z,7.10
2023-02-23T00:43:47.772Z,6.63
2023-02-23T00:46:18.506Z,7.33
2023-02-23T00:48:46.103Z,6.93
2023-02-23T00:51:13.364Z,7.80
2023-02-23T00:53:41.022Z,7.80
2023-02-23T00:56:10.970Z,8.77
2023-02-23T00:58:38.129Z,7.27
2023-02-23T01:01:10.321Z,7.67
2023-02-23T01:03:38.367Z,7.37
2023-02-23T01:06:07.155Z,6.40
2023-02-23T01:08:34.333Z,6.63
2023-02-23T01:11:07.639Z,8.10
2023-02-23T01:13:34.326Z,8.10
2023-02-23T01:16:08.168Z,7.23
2023-02-23T01:18:35.704Z,7.53
2023-02-23T01:21:05.593Z,7.63
2023-02-23T01:23:32.747Z,8.13
2023-02-23T01:25:59.637Z,8.50
2023-02-23T01:28:26.301Z,6.70
2023-02-23T01:30:53.164Z,8.40
2023-02-23T01:33:19.946Z,6.97
2023-02-23T01:35:57.400Z,6.57
2023-02-23T01:38:23.945Z,6.73
2023-02-23T01:40:50.726Z,8.07
2023-02-23T01:43:25.947Z,8.07
2023-02-23T01:45:55.320Z,7.30
2023-02-23T01:48:36.685Z,7.57
2023-02-23T01:51:08.712Z,7.00
2023-02-23T01:53:39.631Z,6.93
2023-02-23T01:56:11.350Z,7.20
2023-02-23T01:58:45.034Z,7.50
2023-02-23T02:01:11.999Z,7.07
2023-02-23T02:03:41.778Z,6.23
2023-02-23T02:06:14.649Z,6.60
2023-02-23T02:08:47.428Z,6.73
2023-02-23T02:11:36.626Z,6.80
2023-02-23T02:14:12.854Z,6.90
2023-02-23T02:17:07.300Z,7.93
2023-02-23T02:19:48.899Z,7.47
2023-02-23T02:22:39.891Z,6.07
2023-02-23T02:25:24.691Z,6.60
2023-02-23T02:28:29.622Z,6.47
2023-02-23T02:31:19.526Z,7.17
2023-02-23T02:33:58.140Z,7.93
2023-02-23T02:36:47.461Z,6.50
2023-02-23T02:39:35.402Z,8.00
2023-02-23T02:42:35.736Z,6.40
2023-02-23T02:45:14.001Z,8.27
2023-02-23T02:47:46.407Z,5.90
2023-02-23T02:50:43.038Z,6.53
2023-02-23T02:53:11.106Z,7.33
2023-02-23T02:55:43.777Z,5.40
2023-02-23T02:58:12.845Z,7.40
2023-02-23T03:01:00.155Z,6.47
2023-02-23T03:03:54.049Z,6.67
2023-02-23T03:06:42.094Z,6.73
2023-02-23T03:09:53.771Z,6.73
2023-02-23T03:12:58.555Z,5.47
2023-02-23T03:15:56.649Z,6.77
2023-02-23T03:18:59.814Z,7.50
2023-02-23T03:21:49.525Z,6.57
2023-02-23T03:24:42.142Z,7.30
2023-02-23T03:27:38.776Z,7.97
2023-02-23T03:30:39.615Z,7.20
2023-02-23T03:33:30.951Z,6.50
2023-02-23T03:36:46.548Z,6.07
2023-02-23T03:39:36.396Z,6.83
2023-02-23T03:42:23.297Z,7.20
2023-02-23T03:45:13.332Z,9.00
2023-02-23T03:48:00.330Z,8.10
2023-02-23T03:50:50.683Z,8.03
2023-02-23T03:53:39.918Z,6.17
2023-02-23T03:56:27.731Z,7.23
2023-02-23T03:59:17.473Z,6.80
2023-02-23T04:02:05.432Z,6.67
2023-02-23T04:04:52.155Z,5.80
2023-02-23T04:07:38.108Z,7.53
2023-02-23T04:10:24.660Z,5.93
2023-02-23T04:13:14.848Z,6.50
2023-02-23T04:16:01.603Z,5.90
2023-02-23T04:18:31.618Z,7.80
2023-02-23T04:21:00.101Z,6.80
2023-02-23T04:23:27.731Z,7.07
2023-02-23T04:25:55.591Z,6.17
2023-02-23T04:28:24.115Z,8.10
2023-02-23T04:30:52.724Z,7.73
2023-02-23T04:33:21.993Z,6.37
2023-02-23T04:35:49.090Z,7.00
2023-02-23T04:38:16.034Z,7.87
2023-02-23T04:40:42.766Z,7.70
2023-02-23T04:43:12.456Z,7.73
2023-02-23T04:45:39.293Z,7.23
2023-02-23T04:48:05.962Z,8.33
2023-02-23T04:50:32.716Z,8.63
2023-02-23T04:52:59.504Z,9.00
2023-02-23T04:55:26.374Z,7.87
2023-02-23T04:57:57.915Z,7.20
2023-02-23T05:00:24.624Z,8.70
2023-02-23T05:02:51.323Z,7.83
2023-02-23T05:05:17.906Z,8.80
2023-02-23T05:07:44.351Z,8.47
2023-02-23T05:10:11.382Z,8.10
2023-02-23T05:12:37.879Z,8.67
2023-02-23T05:15:04.773Z,8.83
2023-02-23T05:17:31.225Z,9.47
2023-02-23T05:19:57.679Z,8.40
2023-02-23T05:22:24.155Z,8.73
2023-02-23T05:24:50.604Z,9.10
2023-02-23T05:27:17.786Z,7.83
2023-02-23T05:29:44.632Z,8.07
2023-02-23T05:32:11.279Z,8.30
2023-02-23T05:34:39.128Z,8.80
2023-02-23T05:37:05.916Z,9.53
2023-02-23T05:39:32.467Z,9.00
2023-02-23T05:41:58.922Z,8.57
2023-02-23T05:44:25.434Z,8.63
2023-02-23T05:46:51.968Z,8.30
2023-02-23T05:49:18.455Z,8.50
2023-02-23T05:51:44.956Z,9.20
2023-02-23T05:54:11.472Z,8.60
2023-02-23T05:56:38.099Z,8.53
2023-02-23T05:59:04.827Z,9.30
2023-02-23T06:01:32.138Z,8.07
2023-02-23T06:03:58.644Z,9.23
2023-02-23T06:06:25.736Z,9.00
2023-02-23T06:08:55.518Z,7.83
2023-02-23T06:11:22.477Z,8.97
2023-02-23T06:13:49.036Z,9.53
2023-02-23T06:16:15.857Z,8.80
2023-02-23T06:18:42.435Z,7.73
2023-02-23T06:21:08.923Z,6.80
2023-02-23T06:23:35.492Z,7.67
2023-02-23T06:26:02.049Z,6.60
2023-02-23T06:28:28.802Z,9.50
2023-02-23T06:30:56.015Z,7.57
2023-02-23T06:33:22.697Z,7.40
2023-02-23T06:35:50.232Z,9.13
2023-02-23T06:38:16.745Z,9.30
2023-02-23T06:40:43.350Z,9.00
2023-02-23T06:43:10.189Z,7.97
2023-02-23T06:45:36.756Z,8.07
2023-02-23T06:48:03.905Z,9.17
2023-02-23T06:50:30.435Z,8.40
2023-02-23T06:52:57.553Z,8.40
2023-02-23T06:55:24.315Z,7.93
2023-02-23T06:57:51.838Z,9.30
2023-02-23T07:00:18.737Z,8.80
2023-02-23T07:02:45.795Z,8.53
2023-02-23T07:05:12.301Z,8.97
2023-02-23T07:07:38.903Z,8.80
2023-02-23T07:10:06.226Z,8.60
2023-02-23T07:12:32.845Z,7.40
2023-02-23T07:14:59.316Z,8.83
2023-02-23T07:17:25.773Z,8.50
2023-02-23T07:19:52.268Z,9.17
2023-02-23T07:22:18.710Z,8.87
2023-02-23T07:24:45.193Z,7.80
2023-02-23T07:27:11.650Z,7.70
2023-02-23T07:29:38.126Z,9.17
2023-02-23T07:32:05.485Z,7.70
2023-02-23T07:34:32.012Z,9.03
2023-02-23T07:36:58.485Z,9.03
2023-02-23T07:39:25.618Z,9.47
2023-02-23T07:41:52.118Z,9.33
2023-02-23T07:44:19.114Z,8.47
2023-02-23T07:46:46.422Z,8.50
2023-02-23T07:49:13.848Z,8.63
2023-02-23T07:51:40.872Z,9.07
2023-02-23T07:54:07.374Z,8.40
2023-02-23T07:56:34.058Z,7.83
2023-02-23T07:59:00.518Z,8.60
2023-02-23T08:01:27.014Z,8.33
2023-02-23T08:03:53.521Z,9.23
2023-02-23T08:06:20.395Z,10.87
2023-02-23T08:08:47.175Z,9.13
2023-02-23T08:11:13.895Z,9.37
2023-02-23T08:13:40.509Z,9.90
2023-02-23T08:16:07.370Z,8.33
2023-02-23T08:18:34.341Z,8.93
2023-02-23T08:21:02.166Z,10.23
2023-02-23T08:23:32.844Z,11.17
2023-02-23T08:26:00.184Z,10.43
2023-02-23T08:28:27.794Z,8.50
2023-02-23T08:30:54.715Z,8.97
2023-02-23T08:33:21.652Z,12.20
2023-02-23T08:35:48.150Z,8.70
2023-02-23T08:38:16.383Z,8.30
2023-02-23T08:40:43.414Z,8.93
2023-02-23T08:43:10.094Z,8.60
2023-02-23T08:45:38.646Z,9.50
2023-02-23T08:48:06.670Z,11.23
2023-02-23T08:50:33.131Z,8.40
2023-02-23T08:52:59.595Z,9.00
2023-02-23T08:55:26.075Z,8.47
2023-02-23T08:57:52.562Z,9.33
2023-02-23T09:00:19.588Z,9.93
2023-02-23T09:02:49.613Z,10.30
2023-02-23T09:05:17.025Z,9.80
2023-02-23T09:07:46.678Z,10.83
2023-02-23T09:10:20.894Z,9.87
2023-02-23T09:12:47.370Z,10.43
2023-02-23T09:15:13.845Z,10.93
2023-02-23T09:17:42.821Z,11.30
2023-02-23T09:20:13.510Z,10.07
2023-02-23T09:22:41.926Z,10.77
2023-02-23T09:25:10.336Z,9.93
2023-02-23T09:27:36.782Z,9.97
2023-02-23T09:30:04.162Z,10.00
2023-02-23T09:32:30.937Z,10.80
2023-02-23T09:34:57.505Z,10.10
2023-02-23T09:37:25.061Z,9.50
2023-02-23T09:39:51.517Z,10.17
2023-02-23T09:42:33.420Z,10.30
2023-02-23T09:45:21.149Z,10.03
2023-02-23T09:48:16.588Z,9.70
2023-02-23T09:50:47.030Z,9.37
2023-02-23T09:53:57.409Z,11.00
2023-02-23T09:56:41.876Z,10.40
2023-02-23T09:59:13.648Z,10.03
2023-02-23T10:01:48.917Z,9.93
2023-02-23T10:04:27.602Z,10.73
2023-02-23T10:07:15.518Z,10.87
2023-02-23T10:09:58.989Z,11.73
2023-02-23T10:12:44.127Z,12.13
2023-02-23T10:15:22.630Z,12.77
2023-02-23T10:18:14.855Z,11.07
2023-02-23T10:20:52.769Z,11.23
2023-02-23T10:23:24.177Z,11.20
2023-02-23T10:25:51.966Z,12.73
2023-02-23T10:28:22.190Z,11.87
2023-02-23T10:30:50.011Z,11.97
2023-02-23T10:33:38.624Z,11.80
2023-02-23T10:36:19.232Z,11.63
2023-02-23T10:38:46.436Z,10.30
2023-02-23T10:41:14.828Z,11.70
2023-02-23T10:43:41.681Z,11.90
2023-02-23T10:46:14.459Z,12.00
2023-02-23T10:48:43.078Z,13.10
2023-02-23T10:51:22.439Z,12.53
2023-02-23T10:53:49.000Z,11.90
2023-02-23T10:56:18.285Z,15.03
2023-02-23T10:58:49.818Z,12.60
2023-02-23T11:01:41.894Z,14.30
2023-02-23T11:04:24.158Z,13.80
2023-02-23T11:06:52.347Z,12.43
2023-02-23T11:09:43.924Z,13.63
2023-02-23T11:12:25.563Z,13.60
2023-02-23T11:14:54.390Z,13.23
2023-02-23T11:17:24.283Z,14.10
2023-02-23T11:19:50.827Z,13.63
2023-02-23T11:22:23.250Z,12.83
2023-02-23T11:24:50.073Z,14.53
2023-02-23T11:27:21.309Z,14.13
2023-02-23T11:29:50.761Z,13.60
2023-02-23T11:32:21.112Z,13.47
2023-02-23T11:34:49.327Z,13.53
2023-02-23T11:37:21.965Z,12.70
2023-02-23T11:39:56.223Z,13.30
2023-02-23T11:42:26.709Z,14.77
2023-02-23T11:45:08.125Z,15.13
2023-02-23T11:47:39.855Z,14.20
2023-02-23T11:50:07.149Z,14.67
2023-02-23T11:52:36.289Z,14.50
2023-02-23T11:55:06.168Z,15.03
2023-02-23T11:57:34.774Z,13.90
2023-02-23T12:00:22.897Z,14.67
2023-02-23T12:02:56.282Z,15.13
2023-02-23T12:05:25.650Z,14.87
2023-02-23T12:08:05.831Z,14.90
2023-02-23T12:10:42.313Z,15.47
2023-02-23T12:13:30.226Z,16.20
2023-02-23T12:16:01.795Z,16.00
2023-02-23T12:18:37.493Z,16.33
2023-02-23T12:21:25.476Z,18.00
2023-02-23T12:24:02.993Z,16.87
2023-02-23T12:26:31.056Z,17.27
2023-02-23T12:29:06.085Z,16.40
2023-02-23T12:32:13.240Z,17.47
2023-02-23T12:34:45.419Z,18.10
2023-02-23T12:37:31.091Z,20.60
2023-02-23T12:40:29.179Z,19.67
2023-02-23T12:43:17.268Z,18.80
2023-02-23T12:45:54.997Z,19.20
2023-02-23T12:48:49.370Z,18.97
2023-02-23T12:51:34.954Z,19.00
2023-02-23T12:54:02.219Z,17.70
2023-02-23T12:56:53.914Z,21.00
2023-02-23T12:59:33.065Z,18.20
2023-02-23T13:02:01.550Z,18.50
2023-02-23T13:04:46.108Z,18.27
2023-02-23T13:07:27.726Z,17.00
2023-02-23T13:10:00.224Z,18.97
2023-02-23T13:12:46.095Z,19.17
2023-02-23T13:15:46.924Z,18.63
2023-02-23T13:18:21.919Z,19.30
2023-02-23T13:21:05.618Z,17.70
2023-02-23T13:24:01.838Z,19.00
2023-02-23T13:26:46.599Z,18.73
2023-02-23T13:29:31.660Z,18.40
2023-02-23T13:32:00.924Z,16.13
2023-02-23T13:34:36.272Z,18.27
2023-02-23T13:37:05.632Z,19.00
2023-02-23T13:40:07.622Z,19.83
2023-02-23T13:42:44.252Z,21.03
2023-02-23T13:45:32.598Z,19.57
2023-02-23T13:48:05.360Z,21.77
2023-02-23T13:50:40.629Z,21.03
2023-02-23T13:53:07.930Z,21.40
2023-02-23T13:55:48.220Z,20.37
2023-02-23T13:58:18.450Z,20.90
2023-02-23T14:00:53.307Z,21.80
2023-02-23T14:03:25.792Z,21.83
2023-02-23T14:05:56.675Z,20.60
2023-02-23T14:08:28.309Z,21.27
2023-02-23T14:10:57.245Z,21.40
2023-02-23T14:13:32.389Z,23.60
2023-02-23T14:16:31.458Z,20.87
2023-02-23T14:19:03.863Z,20.30
2023-02-23T14:21:35.628Z,23.03
2023-02-23T14:24:04.741Z,22.57
2023-02-23T14:26:31.098Z,19.80
2023-02-23T14:29:27.579Z,20.10
2023-02-23T14:32:12.318Z,21.27
2023-02-23T14:34:47.858Z,22.37
2023-02-23T14:37:17.880Z,21.80
2023-02-23T14:39:44.375Z,22.47
2023-02-23T14:42:27.675Z,22.97
2023-02-23T14:44:54.857Z,21.97
2023-02-23T14:47:26.761Z,20.43
2023-02-23T14:49:58.383Z,20.80
2023-02-23T14:52:31.326Z,21.70
2023-02-23T14:55:13.080Z,21.37
2023-02-23T14:57:41.681Z,21.17
2023-02-23T15:00:27.918Z,19.90
2023-02-23T15:02:55.748Z,20.90
2023-02-23T15:05:26.180Z,20.83
2023-02-23T15:07:54.461Z,22.03
2023-02-23T15:10:29.917Z,20.40
2023-02-23T15:12:56.865Z,19.83
2023-02-23T15:15:25.197Z,21.80
2023-02-23T15:17:54.782Z,19.87
2023-02-23T15:20:23.993Z,21.00
2023-02-23T15:22:53.762Z,19.40
2023-02-23T15:25:24.096Z,20.40
2023-02-23T15:27:51.789Z,20.50
2023-02-23T15:30:30.805Z,21.47
2023-02-23T15:33:05.902Z,21.20
2023-02-23T15:35:45.521Z,22.90
2023-02-23T15:38:40.391Z,21.57
2023-02-23T15:41:06.450Z,21.47
2023-02-23T15:43:33.412Z,22.53
2023-02-23T15:46:04.287Z,20.50
2023-02-23T15:48:41.407Z,22.20
2023-02-23T15:51:07.872Z,19.43
2023-02-23T15:53:37.371Z,20.73
2023-02-23T15:56:14.319Z,22.10
2023-02-23T15:58:56.390Z,22.87
2023-02-23T16:01:28.379Z,20.53
2023-02-23T16:03:59.448Z,21.27
2023-02-23T16:06:32.836Z,21.70
2023-02-23T16:09:26.521Z,20.53
2023-02-23T16:12:03.387Z,19.43
2023-02-23T16:14:44.168Z,20.77
2023-02-23T16:17:22.000Z,19.37
2023-02-23T16:19:48.526Z,18.10
2023-02-23T16:22:21.857Z,22.63
2023-02-23T16:25:02.332Z,21.57
2023-02-23T16:27:29.348Z,22.40
2023-02-23T16:30:00.105Z,20.90
2023-02-23T16:32:34.843Z,20.17
2023-02-23T16:35:09.193Z,22.50
2023-02-23T16:38:10.210Z,23.73
2023-02-23T16:40:36.817Z,22.70
2023-02-23T16:43:03.245Z,22.67
2023-02-23T16:45:29.950Z,21.90
2023-02-23T16:48:01.920Z,18.93
2023-02-23T16:50:28.935Z,21.40
2023-02-23T16:52:55.400Z,19.57
2023-02-23T16:55:27.738Z,20.70
2023-02-23T16:57:56.862Z,19.60
2023-02-23T17:00:28.444Z,19.93
2023-02-23T17:02:55.839Z,20.53
2023-02-23T17:05:26.273Z,20.23
2023-02-23T17:07:53.464Z,19.60
2023-02-23T17:10:27.204Z,19.40
2023-02-23T17:12:55.306Z,21.10
2023-02-23T17:15:23.124Z,22.70
2023-02-23T17:17:49.651Z,22.17
2023-02-23T17:20:17.429Z,22.47
2023-02-23T17:22:44.415Z,19.67
2023-02-23T17:25:11.367Z,20.00
2023-02-23T17:27:37.820Z,21.27
2023-02-23T17:30:06.124Z,23.10
2023-02-23T17:32:33.111Z,20.77
2023-02-23T17:34:59.671Z,23.17
2023-02-23T17:37:26.128Z,24.57
2023-02-23T17:39:52.575Z,23.47
2023-02-23T17:42:19.203Z,21.50
2023-02-23T17:44:45.676Z,22.93
2023-02-23T17:47:12.221Z,22.80
2023-02-23T17:49:38.748Z,21.30
2023-02-23T17:52:05.239Z,21.53
2023-02-23T17:54:31.699Z,20.57
2023-02-23T17:56:58.428Z,21.90
2023-02-23T17:59:24.868Z,22.50
2023-02-23T18:01:51.497Z,24.73
2023-02-23T18:04:17.956Z,22.37
2023-02-23T18:06:44.652Z,22.80
2023-02-23T18:09:14.350Z,22.47
2023-02-23T18:11:40.876Z,22.13
2023-02-23T18:14:09.396Z,21.90
2023-02-23T18:16:35.856Z,22.10
2023-02-23T18:19:02.307Z,22.07
2023-02-23T18:21:29.067Z,23.20
2023-02-23T18:23:55.734Z,23.47
2023-02-23T18:26:23.790Z,24.10
2023-02-23T18:28:51.051Z,24.23
2023-02-23T18:31:19.796Z,22.33
2023-02-23T18:33:47.826Z,20.40
2023-02-23T18:36:22.666Z,21.20
2023-02-23T18:38:49.281Z,20.10
2023-02-23T18:41:16.024Z,19.70
2023-02-23T18:43:42.625Z,20.80
2023-02-23T18:46:10.871Z,19.80
2023-02-23T18:48:38.290Z,21.13
2023-02-23T18:51:05.902Z,22.40
2023-02-23T18:53:37.117Z,20.90
2023-02-23T18:56:05.896Z,23.23
2023-02-23T18:58:33.350Z,22.10
2023-02-23T19:01:00.155Z,22.07
2023-02-23T19:03:26.669Z,21.87
2023-02-23T19:05:53.213Z,20.53
2023-02-23T19:08:20.469Z,21.73
2023-02-23T19:10:47.662Z,24.10
2023-02-23T19:13:14.691Z,24.10
2023-02-23T19:15:41.381Z,24.70
2023-02-23T19:18:07.813Z,23.20
2023-02-23T19:20:35.741Z,21.63
2023-02-23T19:23:05.958Z,21.63
2023-02-23T19:25:32.542Z,19.40
2023-02-23T19:27:59.063Z,21.10
2023-02-23T19:30:25.561Z,19.17
2023-02-23T19:32:52.211Z,20.67
2023-02-23T19:35:19.290Z,19.30
2023-02-23T19:37:50.739Z,20.50
2023-02-23T19:40:22.615Z,19.60
2023-02-23T19:42:50.229Z,20.70
2023-02-23T19:45:17.738Z,23.03
2023-02-23T19:47:44.511Z,23.20
2023-02-23T19:50:18.786Z,22.80
2023-02-23T19:52:46.289Z,25.70
2023-02-23T19:55:12.988Z,23.60
2023-02-23T19:57:40.249Z,23.10
2023-02-23T20:00:11.451Z,22.87
2023-02-23T20:02:42.522Z,25.93
2023-02-23T20:05:13.548Z,23.90
2023-02-23T20:07:40.213Z,26.90
2023-02-23T20:10:08.249Z,26.27
2023-02-23T20:12:35.386Z,25.23
2023-02-23T20:15:02.143Z,24.20
2023-02-23T20:17:29.160Z,26.13
2023-02-23T20:19:55.614Z,24.30
2023-02-23T20:22:22.060Z,23.53
2023-02-23T20:24:49.403Z,26.60
2023-02-23T20:27:15.843Z,25.20
2023-02-23T20:29:42.274Z,24.70
2023-02-23T20:32:08.855Z,24.30
2023-02-23T20:34:35.624Z,25.43
2023-02-23T20:37:04.230Z,26.90
2023-02-23T20:39:30.776Z,27.03
2023-02-23T20:41:57.201Z,25.57
2023-02-23T20:44:24.095Z,26.47
2023-02-23T20:46:50.638Z,25.10
2023-02-23T20:49:18.682Z,24.93
2023-02-23T20:51:47.133Z,26.90
2023-02-23T20:54:13.894Z,24.17
2023-02-23T20:56:41.613Z,26.73
2023-02-23T20:59:11.680Z,28.57
2023-02-23T21:01:40.483Z,25.90
2023-02-23T21:04:07.469Z,25.23
2023-02-23T21:06:33.975Z,25.43
2023-02-23T21:09:04.539Z,27.23
2023-02-23T21:11:31.840Z,23.20
2023-02-23T21:13:59.443Z,26.07
2023-02-23T21:16:27.713Z,25.83
2023-02-23T21:19:03.752Z,28.70
2023-02-23T21:22:02.748Z,25.20
2023-02-23T21:24:33.679Z,25.20
2023-02-23T21:27:01.781Z,24.50
2023-02-23T21:29:28.263Z,26.33
2023-02-23T21:31:54.928Z,26.40
2023-02-23T21:34:21.505Z,26.60
2023-02-23T21:36:49.843Z,25.60
2023-02-23T21:39:16.297Z,26.40
2023-02-23T21:41:42.775Z,25.40
2023-02-23T21:44:09.295Z,27.67
2023-02-23T21:46:35.865Z,26.70
2023-02-23T21:49:09.434Z,24.00
2023-02-23T21:51:36.514Z,22.27
2023-02-23T21:54:03.069Z,24.00
2023-02-23T21:56:29.635Z,21.17
2023-02-23T21:58:56.226Z,23.03
2023-02-23T22:01:25.580Z,21.30
2023-02-23T22:03:54.726Z,21.83
2023-02-23T22:06:23.703Z,22.97
2023-02-23T22:08:50.503Z,23.10
2023-02-23T22:11:20.016Z,22.30
2023-02-23T22:13:48.337Z,21.80
2023-02-23T22:16:19.386Z,23.23
2023-02-23T22:18:46.355Z,21.30
2023-02-23T22:21:13.101Z,18.87
2023-02-23T22:23:47.892Z,22.90
2023-02-23T22:26:14.635Z,21.53
2023-02-23T22:28:41.080Z,24.30
2023-02-23T22:31:10.954Z,20.80
2023-02-23T22:33:40.379Z,22.30
2023-02-23T22:36:11.220Z,25.13
2023-02-23T22:38:37.966Z,24.27
2023-02-23T22:41:10.438Z,20.33
2023-02-23T22:43:41.803Z,23.10
2023-02-23T22:46:08.633Z,22.53
2023-02-23T22:48:35.866Z,21.60
2023-02-23T22:51:02.962Z,25.20
2023-02-23T22:53:29.476Z,24.90
2023-02-23T22:55:56.283Z,24.20
2023-02-23T22:58:24.031Z,23.30
2023-02-23T23:01:09.790Z,22.67
2023-02-23T23:03:47.302Z,22.83
2023-02-23T23:06:21.841Z,23.30
2023-02-23T23:08:49.878Z,24.00
2023-02-23T23:11:19.597Z,24.37
2023-02-23T23:13:48.644Z,26.97
2023-02-23T23:16:31.221Z,24.00
2023-02-23T23:19:03.686Z,23.57
2023-02-23T23:21:32.743Z,23.53
2023-02-23T23:24:01.545Z,23.57
2023-02-23T23:26:28.804Z,23.67
2023-02-23T23:28:57.781Z,24.03
2023-02-23T23:31:29.509Z,23.80
2023-02-23T23:34:01.464Z,25.20
2023-02-23T23:36:33.717Z,24.50
2023-02-23T23:39:01.401Z,25.30
2023-02-23T23:41:29.435Z,24.03
2023-02-23T23:43:58.144Z,24.20
2023-02-23T23:46:35.544Z,23.97
2023-02-23T23:49:08.025Z,24.17
2023-02-23T23:51:48.572Z,25.93
2023-02-23T23:54:22.157Z,24.00
2023-02-23T23:56:49.756Z,23.80
2023-02-23T23:59:17.935Z,27.07
